createdAt,value
2018-08-11T00:00:35.656Z,67.25
2018-08-11T00:03:04.225Z,67.31
2018-08-11T00:05:32.724Z,67.73
2018-08-11T00:08:01.282Z,67.72
2018-08-11T00:10:29.745Z,68.69
2018-08-11T00:12:58.277Z,68.65
2018-08-11T00:15:26.816Z,68.84
2018-08-11T00:17:55.261Z,68.31
2018-08-11T00:20:25.511Z,67.83
2018-08-11T00:22:54.009Z,68.54
2018-08-11T00:25:22.509Z,69.20
2018-08-11T00:27:51.062Z,69.86
2018-08-11T00:30:20.822Z,69.76
2018-08-11T00:32:49.360Z,70.04
2018-08-11T00:35:18.229Z,70.53
2018-08-11T00:37:46.988Z,71.18
2018-08-11T00:40:19.193Z,71.14
2018-08-11T00:42:48.770Z,71.19
2018-08-11T00:45:18.577Z,71.03
2018-08-11T00:47:47.178Z,71.32
2018-08-11T00:50:23.072Z,71.12
2018-08-11T00:52:51.545Z,69.65
2018-08-11T00:55:20.053Z,69.81
2018-08-11T00:57:48.673Z,69.82
2018-08-11T01:00:19.386Z,69.29
2018-08-11T01:02:48.077Z,69.98
2018-08-11T01:05:20.110Z,69.37
2018-08-11T01:07:49.137Z,68.99
2018-08-11T01:10:18.341Z,69.00
2018-08-11T01:12:47.332Z,69.06
2018-08-11T01:15:20.018Z,68.68
2018-08-11T01:17:49.313Z,68.06
2018-08-11T01:20:18.468Z,67.97
2018-08-11T01:22:47.705Z,68.45
2018-08-11T01:25:16.563Z,69.31
2018-08-11T01:27:45.184Z,68.50
2018-08-11T01:30:16.516Z,68.21
2018-08-11T01:32:45.074Z,68.79
2018-08-11T01:35:13.677Z,67.89
2018-08-11T01:37:43.207Z,67.96
2018-08-11T01:40:12.944Z,66.68
2018-08-11T01:42:42.491Z,66.81
2018-08-11T01:45:11.901Z,65.38
2018-08-11T01:47:40.813Z,65.68
2018-08-11T01:50:10.984Z,64.54
2018-08-11T01:52:40.645Z,64.26
2018-08-11T01:55:10.106Z,64.87
2018-08-11T01:57:38.557Z,65.84
2018-08-11T02:00:09.045Z,65.19
2018-08-11T02:02:37.852Z,64.64
2018-08-11T02:05:06.748Z,65.20
2018-08-11T02:07:35.333Z,63.21
2018-08-11T02:10:04.921Z,64.39
2018-08-11T02:12:33.451Z,65.37
2018-08-11T02:15:01.911Z,66.15
2018-08-11T02:17:30.580Z,66.71
2018-08-11T02:19:59.104Z,66.93
2018-08-11T02:22:27.577Z,67.87
2018-08-11T02:24:57.101Z,68.23
2018-08-11T02:27:25.606Z,68.98
2018-08-11T02:29:54.168Z,68.96
2018-08-11T02:32:22.611Z,68.74
2018-08-11T02:34:51.118Z,68.96
2018-08-11T02:37:19.653Z,69.18
2018-08-11T02:39:48.161Z,69.84
2018-08-11T02:42:16.822Z,69.53
2018-08-11T02:44:45.354Z,70.01
2018-08-11T02:47:13.837Z,70.50
2018-08-11T02:49:42.313Z,71.14
2018-08-11T02:52:10.758Z,72.12
2018-08-11T02:54:39.261Z,73.34
2018-08-11T02:57:07.665Z,73.26
2018-08-11T02:59:36.172Z,73.64
2018-08-11T03:02:04.657Z,72.85
2018-08-11T03:04:33.065Z,72.92
2018-08-11T03:07:01.558Z,73.11
2018-08-11T03:09:30.102Z,73.50
2018-08-11T03:11:58.634Z,73.94
2018-08-11T03:14:27.159Z,74.23
2018-08-11T03:16:55.570Z,74.90
2018-08-11T03:19:24.148Z,76.66
2018-08-11T03:21:52.662Z,75.45
2018-08-11T03:24:21.087Z,76.00
2018-08-11T03:26:49.501Z,76.42
2018-08-11T03:29:18.303Z,74.78
2018-08-11T03:31:46.758Z,75.64
2018-08-11T03:34:15.674Z,77.37
2018-08-11T03:36:44.166Z,74.69
2018-08-11T03:39:13.387Z,76.43
2018-08-11T03:41:42.318Z,75.37
2018-08-11T03:44:11.240Z,75.68
2018-08-11T03:46:39.699Z,75.64
2018-08-11T03:49:08.253Z,76.55
2018-08-11T03:51:36.693Z,75.71
2018-08-11T03:54:05.245Z,76.19
2018-08-11T03:56:33.713Z,76.26
2018-08-11T03:59:02.149Z,77.66
2018-08-11T04:01:30.596Z,77.06
2018-08-11T04:03:59.099Z,76.27
2018-08-11T04:06:27.593Z,76.68
2018-08-11T04:08:56.050Z,77.00
2018-08-11T04:11:24.535Z,76.03
2018-08-11T04:13:53.011Z,77.05
2018-08-11T04:16:21.521Z,76.73
2018-08-11T04:18:49.948Z,76.72
2018-08-11T04:21:18.727Z,75.94
2018-08-11T04:23:47.133Z,76.85
2018-08-11T04:26:15.794Z,76.35
2018-08-11T04:28:44.233Z,76.73
2018-08-11T04:31:12.765Z,77.18
2018-08-11T04:33:41.161Z,77.44
2018-08-11T04:36:10.030Z,76.48
2018-08-11T04:38:38.418Z,79.63
2018-08-11T04:41:06.989Z,76.62
2018-08-11T04:43:35.373Z,76.43
2018-08-11T04:46:03.861Z,76.06
2018-08-11T04:48:32.480Z,75.54
2018-08-11T04:51:00.969Z,77.47
2018-08-11T04:53:29.441Z,76.55
2018-08-11T04:55:57.874Z,78.29
2018-08-11T04:58:26.274Z,77.00
2018-08-11T05:00:54.810Z,76.88
2018-08-11T05:03:23.239Z,76.21
2018-08-11T05:05:51.822Z,75.86
2018-08-11T05:08:20.578Z,75.39
2018-08-11T05:10:49.017Z,74.71
2018-08-11T05:13:17.925Z,74.69
2018-08-11T05:15:46.393Z,74.84
2018-08-11T05:18:14.929Z,74.62
2018-08-11T05:20:43.409Z,74.11
2018-08-11T05:23:11.813Z,73.45
2018-08-11T05:25:40.305Z,73.16
2018-08-11T05:28:09.021Z,74.23
2018-08-11T05:30:37.457Z,72.80
2018-08-11T05:33:06.835Z,72.52
2018-08-11T05:35:35.254Z,71.86
2018-08-11T05:38:03.801Z,71.70
2018-08-11T05:40:32.233Z,70.79
2018-08-11T05:43:00.721Z,69.53
2018-08-11T05:45:29.177Z,69.60
2018-08-11T05:47:57.690Z,68.91
2018-08-11T05:50:26.142Z,69.72
2018-08-11T05:52:54.953Z,68.51
2018-08-11T05:55:23.412Z,69.08
2018-08-11T05:57:51.941Z,69.15
2018-08-11T06:00:20.418Z,69.24
2018-08-11T06:02:48.885Z,68.54
2018-08-11T06:05:17.597Z,68.52
2018-08-11T06:07:46.097Z,68.43
2018-08-11T06:10:14.541Z,67.83
2018-08-11T06:12:43.019Z,67.04
2018-08-11T06:15:11.749Z,64.92
2018-08-11T06:17:40.228Z,64.56
2018-08-11T06:20:09.538Z,64.31
2018-08-11T06:22:38.149Z,64.00
2018-08-11T06:25:08.652Z,64.18
2018-08-11T06:27:37.077Z,63.22
2018-08-11T06:30:07.070Z,63.22
2018-08-11T06:32:35.592Z,62.84
2018-08-11T06:35:04.317Z,61.90
2018-08-11T06:37:32.991Z,61.22
2018-08-11T06:40:01.415Z,62.29
2018-08-11T06:42:29.926Z,62.38
2018-08-11T06:44:58.443Z,62.97
2018-08-11T06:47:27.042Z,60.90
2018-08-11T06:49:55.535Z,60.21
2018-08-11T06:52:24.061Z,60.69
2018-08-11T06:54:52.686Z,59.55
2018-08-11T06:57:21.106Z,58.60
2018-08-11T06:59:49.574Z,58.89
2018-08-11T07:02:18.653Z,57.96
2018-08-11T07:04:47.146Z,58.38
2018-08-11T07:07:15.799Z,57.80
2018-08-11T07:09:44.201Z,56.51
2018-08-11T07:12:12.961Z,56.05
2018-08-11T07:14:41.392Z,55.14
2018-08-11T07:19:47.934Z,55.52
2018-08-11T07:22:17.757Z,54.66
2018-08-11T07:24:46.212Z,54.79
2018-08-11T07:27:14.871Z,54.23
2018-08-11T07:29:43.679Z,53.80
2018-08-11T07:32:12.911Z,51.84
2018-08-11T07:34:41.332Z,51.60
2018-08-11T07:37:09.772Z,52.02
2018-08-11T07:39:38.533Z,52.61
2018-08-11T07:42:07.277Z,52.07
2018-08-11T07:44:35.716Z,49.43
2018-08-11T07:47:04.521Z,49.92
2018-08-11T07:49:33.016Z,48.88
2018-08-11T07:52:01.482Z,49.72
2018-08-11T07:54:30.046Z,48.25
2018-08-11T07:56:58.529Z,47.92
2018-08-11T07:59:27.082Z,47.40
2018-08-11T08:01:55.617Z,47.05
2018-08-11T08:04:24.187Z,46.96
2018-08-11T08:06:52.651Z,47.08
2018-08-11T08:09:21.381Z,45.66
2018-08-11T08:11:49.818Z,43.93
2018-08-11T08:14:19.129Z,41.65
2018-08-11T08:16:47.514Z,43.25
2018-08-11T08:19:16.420Z,42.55
2018-08-11T08:21:44.870Z,41.82
2018-08-11T08:24:13.429Z,41.27
2018-08-11T08:26:42.017Z,41.51
2018-08-11T08:29:10.542Z,41.09
2018-08-11T08:31:39.017Z,39.67
2018-08-11T08:34:07.507Z,39.38
2018-08-11T08:36:35.954Z,38.97
2018-08-11T08:39:07.953Z,39.12
2018-08-11T08:41:36.585Z,39.38
2018-08-11T08:44:05.136Z,40.19
2018-08-11T08:46:33.701Z,39.15
2018-08-11T08:49:02.183Z,39.06
2018-08-11T08:51:30.661Z,39.24
2018-08-11T08:53:59.145Z,39.67
2018-08-11T08:56:27.841Z,39.39
2018-08-11T08:58:56.336Z,39.37
2018-08-11T09:01:24.966Z,39.83
2018-08-11T09:03:53.450Z,40.12
2018-08-11T09:06:21.957Z,39.36
2018-08-11T09:08:50.446Z,39.91
2018-08-11T09:11:19.122Z,39.94
2018-08-11T09:13:47.582Z,39.55
2018-08-11T09:16:16.769Z,38.86
2018-08-11T09:18:45.165Z,38.13
2018-08-11T09:21:13.669Z,37.91
2018-08-11T09:23:42.073Z,37.55
2018-08-11T09:26:11.058Z,37.69
2018-08-11T09:28:39.461Z,37.25
2018-08-11T09:31:08.019Z,36.59
2018-08-11T09:33:36.457Z,37.07
2018-08-11T09:36:05.029Z,36.87
2018-08-11T09:38:33.608Z,36.32
2018-08-11T09:41:02.138Z,35.92
2018-08-11T09:43:30.686Z,34.96
2018-08-11T09:45:59.178Z,35.15
2018-08-11T09:48:27.652Z,34.12
2018-08-11T09:50:56.186Z,34.62
2018-08-11T09:53:24.641Z,32.44
2018-08-11T09:55:53.137Z,31.89
2018-08-11T09:58:21.542Z,30.78
2018-08-11T10:00:54.163Z,30.83
2018-08-11T10:03:22.833Z,28.43
2018-08-11T10:05:51.502Z,28.41
2018-08-11T10:08:20.119Z,29.48
2018-08-11T10:10:48.639Z,27.89
2018-08-11T10:13:18.169Z,27.31
2018-08-11T10:15:46.662Z,26.58
2018-08-11T10:18:15.090Z,25.53
2018-08-11T10:20:43.577Z,24.55
2018-08-11T10:23:12.093Z,24.05
2018-08-11T10:25:40.629Z,22.20
2018-08-11T10:28:09.121Z,21.60
2018-08-11T10:30:37.594Z,22.14
2018-08-11T10:33:06.166Z,22.30
2018-08-11T10:35:34.641Z,23.41
2018-08-11T10:38:03.157Z,24.00
2018-08-11T10:42:54.268Z,26.25
2018-08-11T10:45:22.740Z,24.90
2018-08-11T10:47:51.215Z,22.61
2018-08-11T10:50:19.765Z,23.10
2018-08-11T10:52:48.194Z,20.87
2018-08-11T10:55:16.849Z,22.02
2018-08-11T10:57:45.461Z,21.32
2018-08-11T11:00:14.049Z,21.58
2018-08-11T11:02:42.509Z,21.15
2018-08-11T11:05:11.111Z,20.19
2018-08-11T11:07:39.753Z,20.42
2018-08-11T11:10:08.369Z,20.11
2018-08-11T11:12:36.905Z,20.04
2018-08-11T11:15:06.712Z,19.45
2018-08-11T11:17:35.243Z,19.19
2018-08-11T11:20:03.690Z,18.53
2018-08-11T11:22:32.133Z,18.79
2018-08-11T11:25:00.564Z,21.42
2018-08-11T11:27:29.077Z,20.73
2018-08-11T11:29:57.587Z,18.81
2018-08-11T11:32:26.008Z,20.10
2018-08-11T11:34:54.708Z,17.38
2018-08-11T11:37:23.310Z,17.58
2018-08-11T11:39:51.692Z,16.83
2018-08-11T11:42:20.221Z,17.29
2018-08-11T11:44:48.744Z,17.82
2018-08-11T11:47:17.884Z,15.61
2018-08-11T11:49:46.357Z,18.08
2018-08-11T11:52:14.834Z,19.09
2018-08-11T11:54:43.294Z,18.84
2018-08-11T11:57:11.761Z,16.01
2018-08-11T11:59:40.257Z,16.02
2018-08-11T12:02:08.923Z,15.86
2018-08-11T12:04:37.324Z,18.58
2018-08-11T12:07:06.388Z,15.74
2018-08-11T12:09:34.894Z,18.02
2018-08-11T12:12:03.417Z,16.67
2018-08-11T12:14:31.886Z,15.67
2018-08-11T12:17:00.377Z,15.26
2018-08-11T12:19:28.902Z,13.48
2018-08-11T12:21:57.329Z,13.59
2018-08-11T12:24:25.789Z,14.97
2018-08-11T12:26:54.249Z,15.19
2018-08-11T12:29:22.757Z,15.57
2018-08-11T12:31:51.201Z,14.56
2018-08-11T12:34:19.750Z,13.58
2018-08-11T12:36:48.178Z,13.63
2018-08-11T12:39:17.021Z,13.13
2018-08-11T12:41:45.445Z,13.30
2018-08-11T12:44:13.941Z,10.68
2018-08-11T12:46:42.477Z,11.19
2018-08-11T12:49:10.917Z,13.12
2018-08-11T12:51:39.305Z,11.34
2018-08-11T12:54:07.816Z,11.08
2018-08-11T12:56:36.261Z,11.61
2018-08-11T12:59:04.802Z,12.25
2018-08-11T13:01:33.374Z,12.71
2018-08-11T13:04:01.865Z,16.94
2018-08-11T13:06:30.263Z,18.31
2018-08-11T13:08:58.785Z,16.21
2018-08-11T13:11:27.238Z,13.29
2018-08-11T13:13:55.793Z,12.93
2018-08-11T13:16:24.202Z,11.19
2018-08-11T13:18:53.100Z,10.42
2018-08-11T13:21:21.576Z,11.36
2018-08-11T13:23:50.210Z,10.64
2018-08-11T13:26:18.977Z,10.10
2018-08-11T13:28:47.714Z,10.44
2018-08-11T13:31:16.299Z,11.16
2018-08-11T13:33:44.897Z,10.69
2018-08-11T13:36:13.457Z,10.58
2018-08-11T13:38:42.034Z,10.19
2018-08-11T13:41:10.554Z,9.29
2018-08-11T13:43:39.060Z,10.48
2018-08-11T13:46:07.553Z,10.38
2018-08-11T13:48:35.985Z,11.23
2018-08-11T13:51:04.530Z,9.26
2018-08-11T13:53:33.362Z,10.29
2018-08-11T13:56:01.876Z,9.92
2018-08-11T13:58:30.453Z,11.08
2018-08-11T14:00:59.017Z,9.77
2018-08-11T14:03:27.489Z,9.65
2018-08-11T14:06:02.171Z,9.89
2018-08-11T14:08:37.429Z,9.74
2018-08-11T14:11:06.877Z,9.35
2018-08-11T14:13:35.415Z,9.00
2018-08-11T14:16:03.925Z,8.38
2018-08-11T14:18:32.801Z,8.65
2018-08-11T14:21:01.230Z,9.10
2018-08-11T14:23:30.051Z,8.81
2018-08-11T14:25:58.703Z,9.34
2018-08-11T14:28:27.237Z,9.98
2018-08-11T14:31:05.697Z,10.01
2018-08-11T14:33:34.458Z,9.33
2018-08-11T14:36:10.379Z,9.69
2018-08-11T14:38:48.556Z,9.09
2018-08-11T14:41:18.253Z,9.23
2018-08-11T14:43:46.721Z,9.23
2018-08-11T14:46:15.279Z,9.39
2018-08-11T14:48:44.949Z,9.50
2018-08-11T14:51:14.058Z,9.67
2018-08-11T14:53:49.921Z,9.67
2018-08-11T14:56:19.136Z,9.64
2018-08-11T14:58:58.323Z,8.87
2018-08-11T15:01:27.094Z,8.60
2018-08-11T15:03:55.559Z,9.54
2018-08-11T15:06:26.069Z,9.49
2018-08-11T15:08:57.657Z,9.02
2018-08-11T15:11:26.090Z,9.27
2018-08-11T15:13:54.541Z,8.90
2018-08-11T15:16:23.066Z,8.40
2018-08-11T15:18:51.485Z,9.08
2018-08-11T15:21:20.085Z,9.08
2018-08-11T15:23:48.549Z,7.78
2018-08-11T15:26:17.237Z,7.85
2018-08-11T15:28:45.629Z,8.19
2018-08-11T15:31:14.157Z,8.63
2018-08-11T15:33:42.761Z,9.21
2018-08-11T15:36:11.205Z,9.68
2018-08-11T15:38:39.701Z,8.38
2018-08-11T15:41:08.204Z,8.03
2018-08-11T15:43:36.718Z,9.23
2018-08-11T15:46:05.272Z,8.90
2018-08-11T15:48:33.765Z,8.81
2018-08-11T15:51:02.276Z,8.34
2018-08-11T15:53:30.746Z,8.87
2018-08-11T15:55:59.166Z,9.28
2018-08-11T15:58:27.645Z,8.86
2018-08-11T16:00:56.112Z,8.67
2018-08-11T16:03:24.635Z,9.03
2018-08-11T16:05:53.164Z,9.06
2018-08-11T16:08:21.582Z,8.77
2018-08-11T16:10:50.053Z,8.03
2018-08-11T16:13:19.257Z,8.47
2018-08-11T16:15:47.760Z,8.82
2018-08-11T16:18:16.635Z,9.07
2018-08-11T16:20:45.064Z,8.34
2018-08-11T16:23:13.705Z,7.88
2018-08-11T16:25:42.216Z,7.76
2018-08-11T16:28:10.894Z,7.29
2018-08-11T16:30:39.409Z,8.40
2018-08-11T16:33:08.198Z,8.78
2018-08-11T16:35:36.665Z,10.38
2018-08-11T16:38:05.741Z,11.74
2018-08-11T16:40:34.257Z,11.47
2018-08-11T16:43:02.917Z,11.12
2018-08-11T16:45:31.409Z,10.10
2018-08-11T16:48:00.147Z,8.94
2018-08-11T16:50:28.604Z,9.48
2018-08-11T16:52:57.020Z,8.96
2018-08-11T16:55:25.661Z,9.34
2018-08-11T16:57:54.149Z,8.65
2018-08-11T17:00:22.846Z,9.71
2018-08-11T17:02:51.312Z,10.27
2018-08-11T17:05:20.002Z,10.20
2018-08-11T17:07:48.471Z,11.38
2018-08-11T17:10:17.477Z,10.69
2018-08-11T17:12:46.141Z,11.41
2018-08-11T17:15:14.695Z,12.64
2018-08-11T17:17:43.401Z,14.63
2018-08-11T17:20:12.143Z,16.22
2018-08-11T17:22:40.622Z,18.25
2018-08-11T17:25:09.273Z,18.19
2018-08-11T17:27:37.810Z,17.41
2018-08-11T17:30:06.814Z,18.89
2018-08-11T17:32:35.317Z,19.01
2018-08-11T17:35:03.832Z,19.63
2018-08-11T17:37:32.488Z,21.15
2018-08-11T17:40:01.022Z,21.63
2018-08-11T17:42:29.661Z,22.80
2018-08-11T17:44:58.185Z,23.16
2018-08-11T17:47:26.668Z,23.22
2018-08-11T17:49:55.197Z,21.38
2018-08-11T17:52:23.866Z,18.46
2018-08-11T17:54:52.317Z,16.35
2018-08-11T17:57:21.013Z,15.25
2018-08-11T17:59:49.589Z,17.47
2018-08-11T18:02:18.714Z,19.62
2018-08-11T18:04:47.169Z,21.99
2018-08-11T18:07:15.677Z,23.47
2018-08-11T18:09:44.205Z,24.12
2018-08-11T18:12:12.827Z,25.17
2018-08-11T18:14:41.373Z,26.53
2018-08-11T18:17:09.834Z,27.47
2018-08-11T18:19:38.842Z,27.89
2018-08-11T18:22:07.340Z,28.90
2018-08-11T18:24:35.893Z,29.02
2018-08-11T18:27:04.462Z,30.65
2018-08-11T18:29:33.281Z,30.53
2018-08-11T18:32:01.767Z,30.29
2018-08-11T18:34:30.359Z,31.11
2018-08-11T18:36:58.840Z,31.23
2018-08-11T18:39:27.402Z,31.76
2018-08-11T18:41:55.881Z,33.03
2018-08-11T18:44:24.403Z,33.07
2018-08-11T18:46:53.045Z,33.63
2018-08-11T18:49:21.745Z,34.20
2018-08-11T18:51:51.014Z,34.74
2018-08-11T18:54:19.861Z,35.50
2018-08-11T18:56:48.434Z,35.88
2018-08-11T18:59:17.349Z,36.70
2018-08-11T19:01:46.110Z,36.91
2018-08-11T19:04:14.609Z,37.27
2018-08-11T19:06:43.237Z,38.14
2018-08-11T19:09:13.054Z,38.46
2018-08-11T19:11:42.066Z,39.62
2018-08-11T19:14:10.565Z,39.63
2018-08-11T19:16:39.429Z,39.50
2018-08-11T19:19:08.129Z,39.84
2018-08-11T19:21:36.721Z,41.50
2018-08-11T19:24:05.163Z,43.17
2018-08-11T19:26:33.746Z,44.36
2018-08-11T19:29:02.314Z,44.99
2018-08-11T19:31:30.769Z,45.58
2018-08-11T19:33:59.487Z,46.03
2018-08-11T19:36:27.974Z,44.90
2018-08-11T19:38:56.524Z,45.80
2018-08-11T19:41:25.058Z,46.42
2018-08-11T19:43:53.673Z,46.17
2018-08-11T19:46:22.246Z,47.20
2018-08-11T19:48:50.983Z,48.18
2018-08-11T19:51:20.087Z,49.38
2018-08-11T19:53:48.511Z,50.58
2018-08-11T19:56:17.377Z,51.54
2018-08-11T19:58:45.978Z,51.41
2018-08-11T20:01:14.628Z,51.93
2018-08-11T20:03:43.066Z,51.89
2018-08-11T20:06:11.673Z,52.25
2018-08-11T20:08:40.154Z,53.42
2018-08-11T20:11:08.798Z,53.78
2018-08-11T20:13:37.333Z,54.15
2018-08-11T20:16:06.060Z,54.13
2018-08-11T20:18:34.874Z,53.47
2018-08-11T20:21:03.616Z,53.59
2018-08-11T20:23:32.115Z,51.90
2018-08-11T20:26:00.758Z,51.28
2018-08-11T20:28:29.417Z,51.06
2018-08-11T20:30:57.921Z,51.94
2018-08-11T20:33:26.485Z,52.47
2018-08-11T20:35:54.945Z,51.82
2018-08-11T20:38:23.569Z,52.01
2018-08-11T20:40:52.070Z,52.90
2018-08-11T20:43:20.666Z,53.67
2018-08-11T20:45:49.207Z,54.12
2018-08-11T20:48:18.073Z,56.42
2018-08-11T20:50:46.749Z,56.34
2018-08-11T20:53:15.294Z,56.73
2018-08-11T20:55:44.062Z,57.23
2018-08-11T20:58:12.518Z,57.29
2018-08-11T21:00:41.150Z,57.12
2018-08-11T21:03:11.645Z,57.57
2018-08-11T21:05:40.269Z,58.58
2018-08-11T21:08:08.759Z,58.01
2018-08-11T21:10:37.322Z,58.31
2018-08-11T21:13:05.973Z,57.32
2018-08-11T21:15:34.490Z,57.32
2018-08-11T21:18:02.946Z,56.88
2018-08-11T21:20:31.476Z,57.07
2018-08-11T21:23:00.046Z,57.40
2018-08-11T21:25:28.541Z,57.46
2018-08-11T21:27:57.054Z,58.58
2018-08-11T21:30:25.577Z,58.94
2018-08-11T21:32:54.146Z,60.44
2018-08-11T21:35:22.643Z,59.65
2018-08-11T21:37:51.301Z,60.57
2018-08-11T21:40:19.814Z,59.95
2018-08-11T21:42:48.377Z,60.87
2018-08-11T21:45:17.489Z,62.19
2018-08-11T21:47:46.103Z,62.05
2018-08-11T21:50:14.609Z,61.94
2018-08-11T21:52:43.387Z,62.30
2018-08-11T21:55:12.254Z,62.33
2018-08-11T21:57:40.697Z,62.63
2018-08-11T22:00:46.226Z,62.62
2018-08-11T22:03:14.797Z,63.43
2018-08-11T22:05:43.566Z,63.20
2018-08-11T22:08:12.003Z,64.35
2018-08-11T22:10:40.726Z,64.16
2018-08-11T22:13:09.434Z,65.08
2018-08-11T22:15:38.133Z,64.62
2018-08-11T22:18:06.720Z,64.65
2018-08-11T22:20:35.223Z,65.76
2018-08-11T22:23:03.910Z,64.72
2018-08-11T22:25:32.425Z,65.60
2018-08-11T22:28:01.213Z,65.76
2018-08-11T22:30:29.686Z,66.35
2018-08-11T22:32:58.366Z,65.63
2018-08-11T22:35:26.886Z,65.17
2018-08-11T22:37:55.537Z,65.14
2018-08-11T22:40:24.001Z,65.24
2018-08-11T22:42:52.550Z,65.43
2018-08-11T22:45:21.587Z,66.16
2018-08-11T22:47:50.066Z,66.84
2018-08-11T22:50:18.967Z,68.18
2018-08-11T22:52:47.460Z,68.32
2018-08-11T22:55:16.285Z,68.83
2018-08-11T22:57:44.899Z,69.09
2018-08-11T23:00:17.110Z,69.13
2018-08-11T23:02:45.823Z,70.69
2018-08-11T23:05:15.176Z,70.27
2018-08-11T23:07:43.649Z,70.21
2018-08-11T23:10:13.741Z,70.08
2018-08-11T23:12:43.323Z,70.40
2018-08-11T23:15:13.553Z,69.38
2018-08-11T23:17:43.773Z,69.92
2018-08-11T23:20:12.234Z,69.93
2018-08-11T23:22:40.718Z,69.64
2018-08-11T23:25:10.263Z,69.73
2018-08-11T23:27:38.879Z,69.60
2018-08-11T23:30:10.302Z,70.07
2018-08-11T23:32:39.784Z,70.68
2018-08-11T23:35:08.347Z,70.45
2018-08-11T23:37:36.805Z,71.34
2018-08-11T23:40:06.390Z,72.68
2018-08-11T23:42:35.273Z,73.37
2018-08-11T23:45:03.969Z,73.45
2018-08-11T23:47:32.445Z,74.03
2018-08-11T23:50:01.086Z,74.52
2018-08-11T23:52:29.533Z,75.26
2018-08-11T23:54:58.073Z,75.74
2018-08-11T23:57:26.617Z,76.29
2018-08-11T23:59:55.145Z,76.52
